Current Weather

Fayette Rgnl Air Cntr Arp

Fayette Rgnl Air Cntr Arp, Texas (K3T5)

Report from: Friday, February 3, 2023 10:55 PM CST
Current time: Friday, February 3, 2023 11:26 PM CST

Nearby weather
Weather history
Weather forecast

Temperature2.7°C (36.9°F)
Dew point2.7°C (36.9°F)
Winds Calm
Visibility8 mi. (12.9 km)
Clouds Sky clear
Altimeter30.51 in.Hg (1033 mB)
Relative humidity100 %
Density altitude-2,060 ft. (-628 m)
Remarks Fully automated report
System requires maintenance
Automated weather observing station with precipitation discriminator
Flight conditions Visual Meteorological Conditions
Raw dataK3T5 040455Z AUTO 00000KT 8SM CLR 03/03 A3051 RMK AO2 T00270027 $
An unhandled exception has occurred. See browser dev tools for details. Reload 🗙